Time;durP1;ratioP1;P1;durP2;ratioP2;P2;SDS_P1;SDS_P2;PMS_P1;PMS_P2;Temp;Humidity;BMP_temperature;BMP_pressure;BME280_temperature;BME280_humidity;BME280_pressure;Samples;Min_cycle;Max_cycle;Signal;HPM_P1;HPM_P2
2023/07/27 00:00:37;;;;;;;10.23;6.00;;;;;;;;;;6291467;22;20055;-89
2023/07/27 00:03:05;;;;;;;14.57;5.75;;;;;;;;;;6289772;22;20007;-89
2023/07/27 00:05:31;;;;;;;16.25;5.32;;;;;;;;;;6263609;22;20026;-90
2023/07/27 00:07:58;;;;;;;13.20;5.07;;;;;;;;;;6284807;22;20022;-90
2023/07/27 00:10:35;;;;;;;12.13;5.22;;;;;;;;;;6259274;22;20011;-90
2023/07/27 00:13:01;;;;;;;11.35;5.22;;;;;;;;;;6283193;22;20008;-90
2023/07/27 00:15:31;;;;;;;12.93;5.95;;;;;;;;;;6285414;22;20022;-89
2023/07/27 00:17:58;;;;;;;11.15;4.90;;;;;;;;;;6285425;22;20012;-90
2023/07/27 00:20:24;;;;;;;9.63;5.25;;;;;;;;;;6260400;22;20019;-90
2023/07/27 00:22:51;;;;;;;14.95;6.32;;;;;;;;;;6260276;22;20012;-90
2023/07/27 00:25:17;;;;;;;9.55;5.22;;;;;;;;;;6260276;22;20039;-90
2023/07/27 00:27:43;;;;;;;12.50;5.45;;;;;;;;;;6252276;22;20014;-90
2023/07/27 00:30:10;;;;;;;13.75;5.53;;;;;;;;;;6278768;22;20011;-89
2023/07/27 00:32:36;;;;;;;9.95;5.22;;;;;;;;;;6283438;22;20417;-89
2023/07/27 00:35:02;;;;;;;14.98;5.75;;;;;;;;;;6257540;22;20016;-89
2023/07/27 00:37:29;;;;;;;15.63;5.70;;;;;;;;;;6256836;22;20011;-89
2023/07/27 00:39:56;;;;;;;12.38;6.07;;;;;;;;;;6281298;22;19999;-89
2023/07/27 00:42:26;;;;;;;10.43;5.35;;;;;;;;;;6282154;22;20430;-90
2023/07/27 00:44:55;;;;;;;18.05;5.72;;;;;;;;;;6283021;22;20012;-90
2023/07/27 00:47:21;;;;;;;19.05;6.80;;;;;;;;;;6256289;22;20015;-89
2023/07/27 00:49:48;;;;;;;14.75;6.03;;;;;;;;;;6255186;22;20362;-89
2023/07/27 00:52:15;;;;;;;13.20;6.28;;;;;;;;;;6279378;22;20401;-89
2023/07/27 00:54:42;;;;;;;15.30;6.15;;;;;;;;;;6280436;22;20000;-88
2023/07/27 00:57:12;;;;;;;12.98;6.03;;;;;;;;;;6282945;22;20364;-89
2023/07/27 00:59:39;;;;;;;12.85;6.32;;;;;;;;;;6281223;22;20033;-89
2023/07/27 01:02:05;;;;;;;11.15;5.43;;;;;;;;;;6280856;22;20004;-89
2023/07/27 01:04:31;;;;;;;13.98;5.82;;;;;;;;;;6281628;22;20098;-89
2023/07/27 01:07:11;;;;;;;13.80;5.95;;;;;;;;;;6265465;22;20015;-89
2023/07/27 01:09:37;;;;;;;16.50;6.63;;;;;;;;;;6288573;22;20007;-89
2023/07/27 01:12:08;;;;;;;14.55;5.30;;;;;;;;;;6287654;22;20038;-89
2023/07/27 01:14:46;;;;;;;12.68;5.88;;;;;;;;;;6285268;22;20130;-89
2023/07/27 01:17:16;;;;;;;14.07;6.22;;;;;;;;;;6317408;22;20003;-90
2023/07/27 01:19:45;;;;;;;15.38;5.70;;;;;;;;;;6289880;22;20078;-89
2023/07/27 01:22:27;;;;;;;10.60;5.57;;;;;;;;;;6289895;22;20007;-90
2023/07/27 01:25:18;;;;;;;11.00;5.38;;;;;;;;;;6288617;22;20011;-89
2023/07/27 01:28:03;;;;;;;11.30;5.28;;;;;;;;;;6268334;22;20007;-89
2023/07/27 01:30:53;;;;;;;16.73;6.07;;;;;;;;;;6314957;22;20004;-90
2023/07/27 01:33:35;;;;;;;13.52;5.50;;;;;;;;;;6289399;22;20007;-90
2023/07/27 01:36:07;;;;;;;15.73;5.53;;;;;;;;;;6288554;22;20018;-90
2023/07/27 01:38:34;;;;;;;8.63;5.05;;;;;;;;;;6287176;22;20036;-90
2023/07/27 01:41:05;;;;;;;11.07;5.45;;;;;;;;;;6311289;22;20003;-90
2023/07/27 01:43:34;;;;;;;13.27;6.07;;;;;;;;;;6289013;22;20011;-90
2023/07/27 01:46:04;;;;;;;13.95;5.45;;;;;;;;;;6288236;22;20339;-90
2023/07/27 01:48:32;;;;;;;12.45;5.55;;;;;;;;;;6264247;22;20449;-89
2023/07/27 01:51:02;;;;;;;9.95;5.25;;;;;;;;;;6287684;22;20010;-90
2023/07/27 01:53:29;;;;;;;12.45;6.20;;;;;;;;;;6284919;22;20004;-89
2023/07/27 01:55:55;;;;;;;13.55;5.75;;;;;;;;;;6287402;22;20337;-89
2023/07/27 01:58:22;;;;;;;20.42;5.97;;;;;;;;;;6282097;22;20058;-90
2023/07/27 02:00:55;;;;;;;12.73;6.03;;;;;;;;;;6287078;22;20003;-90
2023/07/27 02:03:24;;;;;;;10.63;5.63;;;;;;;;;;6286565;22;20413;-89
2023/07/27 02:05:51;;;;;;;13.68;5.07;;;;;;;;;;6285456;22;20011;-88
2023/07/27 02:08:17;;;;;;;15.52;6.38;;;;;;;;;;6254841;22;20429;-89
2023/07/27 02:10:44;;;;;;;12.57;5.38;;;;;;;;;;6254521;22;20012;-89
2023/07/27 02:13:25;;;;;;;15.27;6.32;;;;;;;;;;6277984;22;20087;-89
2023/07/27 02:16:23;;;;;;;10.77;5.85;;;;;;;;;;6280063;22;20007;-90
2023/07/27 02:18:50;;;;;;;11.88;5.20;;;;;;;;;;6197784;22;20068;-89
2023/07/27 02:21:17;;;;;;;11.23;5.63;;;;;;;;;;6253528;22;20018;-90
2023/07/27 02:23:48;;;;;;;13.18;5.72;;;;;;;;;;6283252;22;20018;-89
2023/07/27 02:26:16;;;;;;;9.35;5.28;;;;;;;;;;6284705;22;20031;-90
2023/07/27 02:28:47;;;;;;;12.13;5.05;;;;;;;;;;6285003;22;20008;-89
2023/07/27 02:31:14;;;;;;;11.20;5.88;;;;;;;;;;6260202;22;20345;-90
2023/07/27 02:33:40;;;;;;;12.25;5.47;;;;;;;;;;6258798;22;20209;-90
2023/07/27 02:36:11;;;;;;;10.63;5.60;;;;;;;;;;6261208;22;20008;-91
2023/07/27 02:38:38;;;;;;;13.70;5.93;;;;;;;;;;6282664;22;20447;-89
2023/07/27 02:41:07;;;;;;;8.98;5.05;;;;;;;;;;6286733;22;20000;-90
2023/07/27 02:43:34;;;;;;;14.27;5.75;;;;;;;;;;6285268;22;20027;-89
2023/07/27 02:46:00;;;;;;;13.65;5.38;;;;;;;;;;6259400;22;20161;-89
2023/07/27 02:48:29;;;;;;;18.35;5.63;;;;;;;;;;6287745;22;20027;-90
2023/07/27 02:50:55;;;;;;;10.35;5.53;;;;;;;;;;6284918;22;20322;-89
2023/07/27 02:53:24;;;;;;;14.45;6.00;;;;;;;;;;6285050;22;20019;-89
2023/07/27 02:56:00;;;;;;;11.50;5.53;;;;;;;;;;6259023;22;20008;-90
2023/07/27 02:58:30;;;;;;;12.90;5.65;;;;;;;;;;6283096;22;20007;-89
2023/07/27 03:01:02;;;;;;;8.88;5.07;;;;;;;;;;6260969;22;20008;-88
2023/07/27 03:03:30;;;;;;;12.95;4.85;;;;;;;;;;6260043;22;20012;-89
2023/07/27 03:06:01;;;;;;;9.30;5.32;;;;;;;;;;6259056;22;20011;-89
2023/07/27 03:08:28;;;;;;;9.45;4.35;;;;;;;;;;6286782;22;20016;-89
2023/07/27 03:11:05;;;;;;;13.45;4.80;;;;;;;;;;6285629;22;20019;-90
2023/07/27 03:13:43;;;;;;;11.23;4.97;;;;;;;;;;6284312;22;20018;-90
2023/07/27 03:16:19;;;;;;;12.68;4.82;;;;;;;;;;6259041;22;20004;-89
2023/07/27 03:18:45;;;;;;;10.55;5.35;;;;;;;;;;6284946;22;20006;-89
2023/07/27 03:24:46;;;;;;;8.48;4.70;;;;;;;;;;6285990;22;20014;-90
2023/07/27 03:27:12;;;;;;;;;;;;;;;;;;6283869;22;20200;-88
2023/07/27 03:29:42;;;;;;;9.90;4.68;;;;;;;;;;6284379;22;19922;-89
2023/07/27 03:32:10;;;;;;;11.07;5.15;;;;;;;;;;6259837;22;20018;-89
2023/07/27 03:34:36;;;;;;;9.20;4.80;;;;;;;;;;6284085;22;20007;-90
2023/07/27 03:37:05;;;;;;;13.00;4.95;;;;;;;;;;6259304;22;20004;-90
2023/07/27 03:39:32;;;;;;;8.80;4.60;;;;;;;;;;6282864;22;20036;-90
2023/07/27 03:41:58;;;;;;;9.88;5.00;;;;;;;;;;6257230;22;20012;-90
2023/07/27 03:44:28;;;;;;;11.93;5.20;;;;;;;;;;6283414;22;20366;-90
2023/07/27 03:46:59;;;;;;;12.60;5.35;;;;;;;;;;6285361;22;20058;-89
2023/07/27 03:49:29;;;;;;;16.77;5.07;;;;;;;;;;6280863;22;20016;-90
2023/07/27 03:51:57;;;;;;;9.43;4.80;;;;;;;;;;6285745;22;20008;-90
2023/07/27 03:54:23;;;;;;;9.15;4.55;;;;;;;;;;6281570;22;20011;-90
2023/07/27 03:56:53;;;;;;;9.65;4.57;;;;;;;;;;6258197;22;20007;-89
2023/07/27 03:59:22;;;;;;;17.10;5.97;;;;;;;;;;6286757;22;20023;-89
2023/07/27 04:01:48;;;;;;;10.25;4.97;;;;;;;;;;6259741;22;20038;-89
2023/07/27 04:04:18;;;;;;;12.35;5.18;;;;;;;;;;6259560;22;20012;-90
2023/07/27 04:07:03;;;;;;;13.63;5.55;;;;;;;;;;6284286;22;20380;-89
2023/07/27 04:09:43;;;;;;;12.13;6.20;;;;;;;;;;6284272;22;20054;-89
2023/07/27 04:12:11;;;;;;;11.10;6.05;;;;;;;;;;6286268;22;20043;-90
2023/07/27 04:25:43;;;;;;;13.65;5.63;;;;;;;;;;5832360;22;10697321;-90
2023/07/27 04:28:30;;;;;;;10.65;5.32;;;;;;;;;;6241773;23;20008;-89
2023/07/27 04:31:03;;;;;;;14.48;6.03;;;;;;;;;;6241331;23;20031;-90
2023/07/27 04:33:30;;;;;;;13.18;5.95;;;;;;;;;;6237374;23;20008;-89
2023/07/27 04:35:59;;;;;;;16.67;6.03;;;;;;;;;;6237113;23;20313;-90
2023/07/27 04:38:29;;;;;;;12.82;6.60;;;;;;;;;;6213614;23;20390;-90
2023/07/27 04:40:55;;;;;;;17.27;5.82;;;;;;;;;;6212882;23;20027;-90
2023/07/27 04:43:21;;;;;;;13.65;6.53;;;;;;;;;;6235768;23;20011;-89
2023/07/27 04:45:47;;;;;;;12.35;6.28;;;;;;;;;;6173872;23;20023;-90
2023/07/27 04:48:26;;;;;;;16.50;6.57;;;;;;;;;;6173608;23;20080;-90
2023/07/27 04:50:52;;;;;;;11.90;6.50;;;;;;;;;;6151102;23;20020;-91
2023/07/27 04:53:32;;;;;;;16.15;6.25;;;;;;;;;;6150069;23;20675;-90
2023/07/27 04:55:58;;;;;;;17.00;7.03;;;;;;;;;;6152538;23;20466;-89
2023/07/27 04:58:25;;;;;;;20.73;7.90;;;;;;;;;;6149259;23;20004;-90
2023/07/27 05:00:53;;;;;;;17.58;8.15;;;;;;;;;;6152117;23;20009;-90
2023/07/27 05:03:26;;;;;;;14.80;7.50;;;;;;;;;;6174535;23;20332;-89
2023/07/27 05:05:53;;;;;;;13.82;7.22;;;;;;;;;;6150146;23;20020;-90
2023/07/27 05:08:20;;;;;;;17.05;7.82;;;;;;;;;;6150040;23;20091;-90
2023/07/27 05:10:50;;;;;;;13.52;7.25;;;;;;;;;;6198775;23;20009;-90
2023/07/27 05:13:16;;;;;;;18.13;7.13;;;;;;;;;;6149632;23;20005;-89
2023/07/27 05:15:51;;;;;;;14.88;7.13;;;;;;;;;;6148591;23;20031;-89
2023/07/27 05:18:17;;;;;;;22.77;7.63;;;;;;;;;;6150236;23;20005;-90
2023/07/27 05:20:47;;;;;;;15.85;6.72;;;;;;;;;;6151424;23;20009;-90
2023/07/27 05:23:13;;;;;;;11.48;6.30;;;;;;;;;;6190658;23;20012;-90
2023/07/27 05:25:43;;;;;;;14.77;7.25;;;;;;;;;;6221415;22;20016;-90
2023/07/27 05:28:23;;;;;;;17.88;7.13;;;;;;;;;;6195759;23;20016;-89
2023/07/27 05:31:00;;;;;;;13.10;6.25;;;;;;;;;;6170212;23;20023;-95
2023/07/27 05:33:27;;;;;;;12.95;6.35;;;;;;;;;;6169456;23;20071;-96
2023/07/27 05:35:53;;;;;;;15.98;6.85;;;;;;;;;;6166497;23;20076;-89
2023/07/27 05:38:22;;;;;;;11.73;6.32;;;;;;;;;;6166584;23;20005;-87
2023/07/27 05:40:48;;;;;;;18.35;7.18;;;;;;;;;;6191792;23;20059;-87
2023/07/27 05:43:28;;;;;;;;;;;;;;;;;;;;;
2023/07/27 05:45:55;;;;;;;18.02;7.57;;;;;;;;;;6163869;23;20041;-88
2023/07/27 05:48:21;;;;;;;14.30;6.65;;;;;;;;;;6168771;23;20021;-89
2023/07/27 05:50:48;;;;;;;16.88;6.97;;;;;;;;;;6193729;23;20064;-89
2023/07/27 05:53:15;;;;;;;16.60;7.22;;;;;;;;;;6168072;23;20044;-89
2023/07/27 05:55:45;;;;;;;16.05;7.22;;;;;;;;;;6168974;23;20016;-90
2023/07/27 05:58:11;;;;;;;18.00;7.90;;;;;;;;;;6169380;23;20036;-89
2023/07/27 06:00:38;;;;;;;18.67;6.60;;;;;;;;;;6165988;23;20015;-89
2023/07/27 06:03:04;;;;;;;21.75;6.95;;;;;;;;;;6169296;23;20017;-89
2023/07/27 06:05:30;;;;;;;14.82;7.18;;;;;;;;;;6168758;23;20439;-90
2023/07/27 06:08:21;;;;;;;16.58;7.68;;;;;;;;;;6192972;23;20035;-96
2023/07/27 06:10:57;;;;;;;19.65;6.80;;;;;;;;;;6195210;23;20009;-94
2023/07/27 06:14:02;;;;;;;;;;;;;;;;;;;;;
2023/07/27 06:16:55;;;;;;;21.60;8.52;;;;;;;;;;6199119;23;20005;-94
2023/07/27 06:19:26;;;;;;;10.07;5.55;;;;;;;;;;6200384;23;20025;-90
2023/07/27 06:21:53;;;;;;;12.02;6.15;;;;;;;;;;6188789;22;20427;-92
2023/07/27 06:24:26;;;;;;;18.55;7.97;;;;;;;;;;6228588;22;20028;-90
2023/07/27 06:26:52;;;;;;;14.27;6.65;;;;;;;;;;6225406;23;20011;-89
2023/07/27 06:29:21;;;;;;;16.80;7.03;;;;;;;;;;6225944;23;20009;-89
2023/07/27 06:31:54;;;;;;;19.45;7.80;;;;;;;;;;6248360;23;20087;-89
2023/07/27 06:34:23;;;;;;;10.88;5.50;;;;;;;;;;6225607;23;20491;-91
2023/07/27 06:36:49;;;;;;;10.05;4.82;;;;;;;;;;6223209;23;20008;-89
2023/07/27 06:39:15;;;;;;;11.90;4.82;;;;;;;;;;6225693;23;20011;-89
2023/07/27 06:41:41;;;;;;;15.30;5.82;;;;;;;;;;6246055;23;20011;-89
2023/07/27 06:44:10;;;;;;;11.65;4.53;;;;;;;;;;6225539;23;20301;-90
2023/07/27 06:46:40;;;;;;;8.50;4.72;;;;;;;;;;6222021;23;20518;-91
2023/07/27 06:49:06;;;;;;;10.15;5.38;;;;;;;;;;6247634;23;20004;-89
2023/07/27 06:51:32;;;;;;;8.82;4.57;;;;;;;;;;6222797;23;20019;-89
2023/07/27 06:54:08;;;;;;;8.98;4.45;;;;;;;;;;6248122;23;20004;-90
2023/07/27 06:56:35;;;;;;;10.98;4.05;;;;;;;;;;6221047;23;20462;-90
2023/07/27 06:59:01;;;;;;;11.57;4.97;;;;;;;;;;6224352;23;20400;-91
2023/07/27 07:01:31;;;;;;;7.10;4.25;;;;;;;;;;6218483;23;20005;-90
2023/07/27 07:03:57;;;;;;;12.90;5.55;;;;;;;;;;6193407;23;20013;-89
2023/07/27 07:06:23;;;;;;;9.45;4.88;;;;;;;;;;6192176;23;20013;-89
2023/07/27 07:08:50;;;;;;;9.95;4.95;;;;;;;;;;6193344;23;20021;-89
2023/07/27 07:11:16;;;;;;;9.23;4.30;;;;;;;;;;6192513;23;20078;-89
2023/07/27 07:13:51;;;;;;;7.95;4.22;;;;;;;;;;6240460;23;20066;-90
2023/07/27 07:16:18;;;;;;;5.07;2.53;;;;;;;;;;6240311;23;20005;-90
2023/07/27 07:18:47;;;;;;;6.68;3.90;;;;;;;;;;6240879;23;20031;-90
2023/07/27 07:21:13;;;;;;;9.77;5.13;;;;;;;;;;6191529;23;20020;-89
2023/07/27 07:23:39;;;;;;;9.18;4.10;;;;;;;;;;6191364;23;20521;-90
2023/07/27 07:26:05;;;;;;;8.75;4.25;;;;;;;;;;6240785;23;20015;-89
2023/07/27 07:28:31;;;;;;;5.75;3.88;;;;;;;;;;6191304;23;20017;-90
2023/07/27 07:30:58;;;;;;;10.23;4.10;;;;;;;;;;6240686;23;20009;-89
2023/07/27 07:33:24;;;;;;;6.55;4.15;;;;;;;;;;6189799;23;20015;-89
2023/07/27 07:35:50;;;;;;;7.97;4.28;;;;;;;;;;6189764;23;20018;-90
2023/07/27 07:38:17;;;;;;;7.50;4.85;;;;;;;;;;6243384;23;20012;-89
2023/07/27 07:40:46;;;;;;;7.97;3.97;;;;;;;;;;6242511;23;20335;-90
2023/07/27 07:43:12;;;;;;;7.47;4.35;;;;;;;;;;6239415;23;20008;-90
2023/07/27 07:45:38;;;;;;;5.78;3.65;;;;;;;;;;6242985;23;20023;-90
2023/07/27 07:48:05;;;;;;;7.45;4.20;;;;;;;;;;6191497;23;20423;-90
2023/07/27 07:50:33;;;;;;;8.32;3.97;;;;;;;;;;6241342;23;20064;-89
2023/07/27 07:55:49;;;;;;;8.32;4.03;;;;;;;;;;6198801;23;20023;-89
2023/07/27 07:58:18;;;;;;;7.30;3.40;;;;;;;;;;6195470;23;20023;-89
2023/07/27 08:00:45;;;;;;;7.35;3.88;;;;;;;;;;6192997;23;20386;-89
2023/07/27 08:03:11;;;;;;;6.35;3.40;;;;;;;;;;6192984;23;20012;-88
2023/07/27 08:05:42;;;;;;;6.90;4.03;;;;;;;;;;6194222;23;20008;-89
2023/07/27 08:08:15;;;;;;;7.32;3.67;;;;;;;;;;6193981;23;20013;-90
2023/07/27 08:10:41;;;;;;;6.68;3.60;;;;;;;;;;6242633;23;20015;-89
2023/07/27 08:13:07;;;;;;;4.60;3.08;;;;;;;;;;6240400;23;20375;-90
2023/07/27 08:15:33;;;;;;;9.80;3.55;;;;;;;;;;6242430;23;20004;-89
2023/07/27 08:18:00;;;;;;;5.00;2.78;;;;;;;;;;6192331;23;20036;-89
2023/07/27 08:20:26;;;;;;;8.55;3.15;;;;;;;;;;6242901;23;20327;-88
2023/07/27 08:22:53;;;;;;;7.07;3.33;;;;;;;;;;6188357;22;20017;-87
2023/07/27 08:25:22;;;;;;;4.47;3.00;;;;;;;;;;6160253;23;20036;-88
2023/07/27 08:31:05;;;;;;;5.18;2.63;;;;;;;;;;6129857;23;20029;-88
2023/07/27 08:33:41;;;;;;;5.10;2.58;;;;;;;;;;6105936;23;20010;-89
2023/07/27 08:36:14;;;;;;;6.13;2.65;;;;;;;;;;6165423;23;20072;-89
2023/07/27 08:38:41;;;;;;;3.45;2.63;;;;;;;;;;6162585;23;20032;-88
2023/07/27 08:41:08;;;;;;;4.60;2.30;;;;;;;;;;6162487;23;20005;-87
2023/07/27 08:43:50;;;;;;;;;;;;;;;;;;;;;
2023/07/27 08:46:54;;;;;;;4.13;2.28;;;;;;;;;;6197098;23;20035;-90
2023/07/27 08:49:21;;;;;;;3.55;2.80;;;;;;;;;;6162322;23;20013;-87
2023/07/27 08:51:47;;;;;;;3.63;2.65;;;;;;;;;;6164439;23;20017;-87
2023/07/27 08:54:14;;;;;;;2.20;1.95;;;;;;;;;;6161749;23;20009;-88
2023/07/27 08:56:42;;;;;;;3.67;2.60;;;;;;;;;;6165563;23;20012;-88
2023/07/27 08:59:08;;;;;;;6.88;2.75;;;;;;;;;;6194302;23;20434;-88
2023/07/27 09:01:37;;;;;;;11.00;5.75;;;;;;;;;;6169321;23;20036;-88
2023/07/27 09:04:18;;;;;;;4.38;2.40;;;;;;;;;;6191860;23;20009;-88
2023/07/27 09:06:49;;;;;;;4.80;3.17;;;;;;;;;;6165088;23;20017;-88
2023/07/27 09:09:20;;;;;;;4.00;2.70;;;;;;;;;;6164603;23;20753;-88
2023/07/27 09:11:54;;;;;;;3.13;2.08;;;;;;;;;;6169826;23;20009;-88
2023/07/27 09:14:26;;;;;;;3.47;2.50;;;;;;;;;;6169685;23;20036;-89
2023/07/27 09:16:55;;;;;;;4.10;2.20;;;;;;;;;;6166077;23;20435;-88
2023/07/27 09:23:15;;;;;;;3.33;2.42;;;;;;;;;;6063764;23;20077;-89
2023/07/27 09:25:55;;;;;;;3.40;2.08;;;;;;;;;;6152509;23;20012;-89
2023/07/27 09:28:24;;;;;;;3.83;2.50;;;;;;;;;;6246921;23;20008;-89
2023/07/27 09:30:52;;;;;;;3.45;2.20;;;;;;;;;;6245927;23;20008;-89
2023/07/27 09:33:24;;;;;;;3.17;2.17;;;;;;;;;;6218217;23;20450;-89
2023/07/27 09:36:02;;;;;;;5.88;3.63;;;;;;;;;;6252817;23;20001;-89
2023/07/27 09:38:32;;;;;;;2.45;2.00;;;;;;;;;;6223045;23;20004;-89
2023/07/27 09:41:17;;;;;;;;;;;;;;;;;;;;;
2023/07/27 09:43:44;;;;;;;2.58;2.17;;;;;;;;;;6224973;23;20035;-88
2023/07/27 09:46:10;;;;;;;2.45;2.10;;;;;;;;;;6194439;23;20048;-88
2023/07/27 09:48:36;;;;;;;3.20;2.30;;;;;;;;;;6194296;23;20104;-89
2023/07/27 09:51:19;;;;;;;2.95;2.00;;;;;;;;;;6250171;23;20012;-88
2023/07/27 09:53:46;;;;;;;2.22;2.03;;;;;;;;;;6200846;23;20509;-88
2023/07/27 09:56:13;;;;;;;3.20;2.67;;;;;;;;;;6251708;23;20005;-88
2023/07/27 09:58:42;;;;;;;3.55;2.15;;;;;;;;;;6252291;23;20625;-87
2023/07/27 10:04:07;;;;;;;8.48;2.55;;;;;;;;;;6238185;23;20102;-88
2023/07/27 10:06:52;;;;;;;3.17;2.60;;;;;;;;;;6201388;23;20013;-88
2023/07/27 10:12:51;;;;;;;7.43;2.63;;;;;;;;;;6117252;23;20508;-89
2023/07/27 10:15:18;;;;;;;;;;;;;;;;;;6104826;23;20089;-89
2023/07/27 10:17:52;;;;;;;3.50;2.72;;;;;;;;;;6200358;23;19899;-89
2023/07/27 10:20:24;;;;;;;4.63;2.97;;;;;;;;;;6196009;23;20081;-89
2023/07/27 10:22:55;;;;;;;2.85;2.15;;;;;;;;;;6254471;23;20091;-90
2023/07/27 10:25:52;;;;;;;7.65;3.25;;;;;;;;;;6251010;22;20020;-89
2023/07/27 10:28:39;;;;;;;2.80;2.25;;;;;;;;;;6109433;23;20006;-89
2023/07/27 10:31:41;;;;;;;3.13;2.28;;;;;;;;;;6223153;23;20005;-88
2023/07/27 10:34:09;;;;;;;2.05;1.85;;;;;;;;;;6115211;23;20050;-89
2023/07/27 10:36:57;;;;;;;2.35;2.15;;;;;;;;;;6112341;23;20006;-89
2023/07/27 10:43:17;;;;;;;2.35;2.15;;;;;;;;;;6103055;23;20010;-89
2023/07/27 10:45:58;;;;;;;2.33;2.13;;;;;;;;;;6212521;23;20036;-89
2023/07/27 10:48:25;;;;;;;2.22;2.05;;;;;;;;;;6250348;23;20004;-87
2023/07/27 10:51:06;;;;;;;2.50;2.15;;;;;;;;;;6222211;23;20015;-89
2023/07/27 10:53:36;;;;;;;2.60;1.65;;;;;;;;;;6250704;23;20020;-90
2023/07/27 11:02:05;;;;;;;2.42;2.22;;;;;;;;;;6191642;23;20013;-91
2023/07/27 11:07:46;;;;;;;2.50;2.30;;;;;;;;;;6179367;23;20020;-92
2023/07/27 11:13:14;;;;;;;2.10;1.90;;;;;;;;;;6138433;23;20009;-91
2023/07/27 11:19:19;;;;;;;3.70;2.60;;;;;;;;;;6104832;23;20011;-91
2023/07/27 11:21:46;;;;;;;3.13;2.50;;;;;;;;;;6124700;23;20029;-90
2023/07/27 11:24:15;;;;;;;6.15;2.50;;;;;;;;;;6164235;23;20005;-91
2023/07/27 11:26:43;;;;;;;15.32;5.50;;;;;;;;;;6213882;22;20431;-91
2023/07/27 11:29:26;;;;;;;12.07;3.40;;;;;;;;;;6244235;23;20016;-91
2023/07/27 11:31:53;;;;;;;3.75;2.67;;;;;;;;;;6199025;23;20056;-91
2023/07/27 11:34:31;;;;;;;8.95;3.08;;;;;;;;;;6248503;23;20004;-90
2023/07/27 11:37:37;;;;;;;7.35;2.80;;;;;;;;;;6250413;23;20001;-92
2023/07/27 11:40:08;;;;;;;5.00;2.22;;;;;;;;;;6217871;23;20004;-92
2023/07/27 11:42:41;;;;;;;3.95;2.00;;;;;;;;;;6192190;23;20009;-92
2023/07/27 11:45:11;;;;;;;3.70;2.85;;;;;;;;;;6244037;23;20285;-93
2023/07/27 11:47:38;;;;;;;4.53;3.17;;;;;;;;;;6194061;23;20027;-92
2023/07/27 11:50:10;;;;;;;6.05;3.80;;;;;;;;;;6193088;23;20032;-93
2023/07/27 11:52:40;;;;;;;8.00;3.85;;;;;;;;;;6243751;23;20508;-93
2023/07/27 11:55:06;;;;;;;4.55;3.45;;;;;;;;;;6242997;23;20063;-93
2023/07/27 11:57:32;;;;;;;4.07;3.35;;;;;;;;;;6193497;23;20016;-92
2023/07/27 12:00:18;;;;;;;4.65;3.22;;;;;;;;;;6246005;23;20005;-92
2023/07/27 12:02:49;;;;;;;4.72;2.80;;;;;;;;;;6225017;23;20001;-92
2023/07/27 12:05:23;;;;;;;7.95;3.13;;;;;;;;;;6249427;23;20001;-92
2023/07/27 12:07:59;;;;;;;3.38;2.60;;;;;;;;;;6249870;23;20009;-93
2023/07/27 12:10:29;;;;;;;6.88;2.95;;;;;;;;;;6194046;23;20075;-92
2023/07/27 12:13:07;;;;;;;4.30;2.65;;;;;;;;;;6190393;23;20023;-93
2023/07/27 12:15:33;;;;;;;4.40;3.17;;;;;;;;;;6241239;23;20283;-93
2023/07/27 12:18:03;;;;;;;5.55;3.60;;;;;;;;;;6242591;23;20001;-93
2023/07/27 12:20:35;;;;;;;5.05;3.50;;;;;;;;;;6194886;23;20093;-93
2023/07/27 12:23:10;;;;;;;4.78;3.75;;;;;;;;;;6201227;23;20012;-94
2023/07/27 12:25:59;;;;;;;;;;;;;;;;;;6203706;22;20112;-95
2023/07/27 12:29:29;;;;;;;4.82;3.58;;;;;;;;;;6224279;23;19907;-94
2023/07/27 12:31:40;;;;;;;6.10;3.25;;;;;;;;;;6216409;23;20011;-92
2023/07/27 12:34:16;;;;;;;3.65;3.28;;;;;;;;;;6224490;23;20117;-93
2023/07/27 12:36:42;;;;;;;3.72;3.33;;;;;;;;;;6200119;23;20009;-92
2023/07/27 12:39:09;;;;;;;4.68;3.92;;;;;;;;;;6229665;23;20003;-93
2023/07/27 12:41:37;;;;;;;5.50;4.13;;;;;;;;;;6203549;23;20447;-94
2023/07/27 12:44:03;;;;;;;5.10;3.28;;;;;;;;;;6252399;23;20110;-94
2023/07/27 12:46:30;;;;;;;3.53;3.08;;;;;;;;;;6227426;23;20410;-92
2023/07/27 12:48:56;;;;;;;4.93;3.47;;;;;;;;;;6198514;23;20040;-93
2023/07/27 12:51:23;;;;;;;5.20;3.75;;;;;;;;;;6250441;23;20009;-94
2023/07/27 12:53:49;;;;;;;4.65;3.45;;;;;;;;;;6227727;23;20012;-94
2023/07/27 12:56:27;;;;;;;4.72;3.17;;;;;;;;;;6253833;23;20080;-95
2023/07/27 12:58:53;;;;;;;4.00;2.80;;;;;;;;;;6255303;23;20001;-94
2023/07/27 13:01:20;;;;;;;3.72;3.30;;;;;;;;;;6207734;23;20012;-94
2023/07/27 13:03:51;;;;;;;4.50;3.28;;;;;;;;;;6209465;23;19993;-94
2023/07/27 13:06:25;;;;;;;6.47;3.40;;;;;;;;;;6256555;23;20008;-93
2023/07/27 13:08:51;;;;;;;4.88;2.97;;;;;;;;;;6206268;23;20080;-94
2023/07/27 13:11:23;;;;;;;3.58;2.70;;;;;;;;;;6208789;23;20035;-95
2023/07/27 13:13:55;;;;;;;2.70;2.13;;;;;;;;;;6211989;23;20012;-92
2023/07/27 13:16:52;;;;;;;;;;;;;;;;;;;;;
2023/07/27 13:19:35;;;;;;;3.47;2.10;;;;;;;;;;6234941;23;20064;-96
2023/07/27 13:22:01;;;;;;;2.67;1.75;;;;;;;;;;6203704;23;20062;-92
2023/07/27 13:24:41;;;;;;;2.20;1.80;;;;;;;;;;6203076;23;20023;-93
2023/07/27 13:27:07;;;;;;;1.85;1.58;;;;;;;;;;6252341;22;20020;-93
2023/07/27 13:32:35;;;;;;;5.95;1.73;;;;;;;;;;6126056;23;20014;-95
2023/07/27 13:35:11;;;;;;;2.80;1.40;;;;;;;;;;6201654;23;20092;-94
2023/07/27 13:37:39;;;;;;;4.30;1.73;;;;;;;;;;6200677;23;20016;-94
2023/07/27 13:43:23;;;;;;;2.47;1.45;;;;;;;;;;6171382;23;20009;-94
2023/07/27 13:46:17;;;;;;;1.48;1.38;;;;;;;;;;6222070;23;20095;-94
2023/07/27 13:49:05;;;;;;;2.85;1.92;;;;;;;;;;6111201;23;20046;-94
2023/07/27 13:51:45;;;;;;;4.82;2.22;;;;;;;;;;6115153;23;20040;-95
2023/07/27 14:00:46;;;;;;;1.50;1.40;;;;;;;;;;6051663;23;20071;-96
2023/07/27 14:03:49;;;;;;;;;;;;;;;;;;;;;
2023/07/27 14:06:16;;;;;;;2.15;1.42;;;;;;;;;;6025938;23;20025;-96
2023/07/27 14:09:06;;;;;;;1.50;1.10;;;;;;;;;;6079862;23;20021;-96
2023/07/27 14:14:41;;;;;;;2.20;1.60;;;;;;;;;;6037702;23;20167;-94
2023/07/27 14:17:11;;;;;;;2.45;1.63;;;;;;;;;;6169428;23;20012;-96
2023/07/27 14:19:47;;;;;;;2.08;1.40;;;;;;;;;;6142717;23;20013;-96
2023/07/27 14:26:22;;;;;;;2.05;1.42;;;;;;;;;;6102553;23;20006;-96
2023/07/27 14:28:23;;;;;;;1.48;1.25;;;;;;;;;;6144532;23;20339;-95
2023/07/27 14:30:51;;;;;;;1.83;1.48;;;;;;;;;;6133735;23;20002;-95
2023/07/27 14:33:27;;;;;;;1.42;1.20;;;;;;;;;;6163547;23;20048;-95
2023/07/27 14:36:01;;;;;;;1.85;1.60;;;;;;;;;;6135459;23;20014;-96
2023/07/27 14:41:16;;;;;;;5.90;2.22;;;;;;;;;;6162536;23;20048;-93
2023/07/27 14:43:45;;;;;;;4.55;1.50;;;;;;;;;;6158429;23;20531;-94
2023/07/27 14:46:15;;;;;;;2.00;1.20;;;;;;;;;;6157512;23;20019;-94
2023/07/27 14:48:44;;;;;;;2.03;1.30;;;;;;;;;;6146677;23;20016;-93
2023/07/27 14:54:04;;;;;;;1.73;1.05;;;;;;;;;;6191432;23;20009;-95
2023/07/27 14:56:30;;;;;;;1.20;1.10;;;;;;;;;;6139951;23;20053;-93
2023/07/27 14:59:03;;;;;;;2.70;0.90;;;;;;;;;;6138192;23;20013;-92
2023/07/27 15:01:33;;;;;;;2.67;1.30;;;;;;;;;;6137545;23;20023;-94
2023/07/27 15:04:00;;;;;;;4.40;0.98;;;;;;;;;;6161603;23;20012;-95
2023/07/27 15:06:26;;;;;;;1.02;0.90;;;;;;;;;;6138711;23;20012;-94
2023/07/27 15:08:53;;;;;;;0.60;0.60;;;;;;;;;;6138404;23;20340;-94
2023/07/27 15:11:28;;;;;;;2.40;1.02;;;;;;;;;;6139516;23;20009;-94
2023/07/27 15:13:59;;;;;;;1.30;0.77;;;;;;;;;;6137767;23;20398;-93
2023/07/27 15:16:31;;;;;;;0.88;0.75;;;;;;;;;;6162822;23;20016;-95
2023/07/27 15:19:07;;;;;;;4.72;1.20;;;;;;;;;;6162236;23;20051;-94
2023/07/27 15:21:36;;;;;;;0.85;0.70;;;;;;;;;;6163123;23;20009;-94
2023/07/27 15:24:03;;;;;;;2.60;0.68;;;;;;;;;;6138540;23;20020;-95
2023/07/27 15:26:49;;;;;;;0.90;0.70;;;;;;;;;;6185719;22;20021;-95
2023/07/27 15:29:16;;;;;;;0.90;0.80;;;;;;;;;;6215365;23;20043;-93
2023/07/27 15:31:42;;;;;;;1.17;0.60;;;;;;;;;;6242559;23;20032;-94
2023/07/27 15:34:14;;;;;;;1.00;0.70;;;;;;;;;;6241360;23;20013;-94
2023/07/27 15:36:41;;;;;;;2.03;1.13;;;;;;;;;;6245242;23;20073;-94
2023/07/27 15:39:15;;;;;;;2.97;0.80;;;;;;;;;;6245066;23;20047;-95
2023/07/27 15:41:46;;;;;;;0.68;0.55;;;;;;;;;;6191046;23;20016;-93
2023/07/27 15:44:19;;;;;;;4.00;0.75;;;;;;;;;;6189737;23;20013;-94
2023/07/27 15:46:45;;;;;;;1.25;0.95;;;;;;;;;;6190461;23;20036;-94
2023/07/27 15:49:18;;;;;;;0.60;0.60;;;;;;;;;;6243608;23;20040;-93
2023/07/27 15:51:44;;;;;;;0.77;0.77;;;;;;;;;;6240241;23;20371;-94
2023/07/27 15:54:10;;;;;;;1.25;0.80;;;;;;;;;;6232592;23;20576;-95
2023/07/27 15:56:36;;;;;;;0.75;0.70;;;;;;;;;;6183386;23;20013;-95
2023/07/27 15:59:06;;;;;;;0.75;0.60;;;;;;;;;;6183670;23;20070;-94
2023/07/27 16:01:35;;;;;;;1.90;1.13;;;;;;;;;;6232969;23;20084;-93
2023/07/27 16:04:03;;;;;;;1.17;0.80;;;;;;;;;;6231083;23;20008;-93
2023/07/27 16:06:29;;;;;;;4.10;0.90;;;;;;;;;;6234330;23;20419;-94
2023/07/27 16:08:55;;;;;;;1.73;0.80;;;;;;;;;;6183669;23;20342;-94
2023/07/27 16:11:21;;;;;;;1.60;1.02;;;;;;;;;;6185177;23;20072;-94
2023/07/27 16:13:48;;;;;;;0.77;0.77;;;;;;;;;;6184380;23;20008;-94
2023/07/27 16:16:16;;;;;;;2.42;1.10;;;;;;;;;;6184211;23;20009;-94
2023/07/27 16:18:42;;;;;;;2.75;0.88;;;;;;;;;;6183974;23;20040;-95
2023/07/27 16:21:15;;;;;;;3.17;0.77;;;;;;;;;;6182360;23;20019;-94